createdAt,value
2022-12-29T00:00:17.507Z,53.60
2022-12-29T00:02:44.670Z,53.70
2022-12-29T00:05:11.732Z,54.20
2022-12-29T00:07:38.769Z,53.50
2022-12-29T00:10:06.322Z,53.50
2022-12-29T00:12:53.267Z,53.30
2022-12-29T00:15:38.394Z,53.30
2022-12-29T00:18:05.915Z,53.20
2022-12-29T00:20:56.917Z,53.10
2022-12-29T00:23:43.307Z,53.10
2022-12-29T00:26:35.846Z,53.00
2022-12-29T00:29:21.246Z,52.90
2022-12-29T00:32:07.406Z,52.50
2022-12-29T00:34:52.833Z,52.60
2022-12-29T00:37:39.924Z,52.40
2022-12-29T00:40:25.925Z,52.30
2022-12-29T00:43:11.812Z,52.30
2022-12-29T00:45:42.164Z,52.10
2022-12-29T00:48:09.111Z,52.20
2022-12-29T00:50:36.051Z,52.10
2022-12-29T00:53:02.943Z,52.00
2022-12-29T00:55:29.874Z,52.10
2022-12-29T00:57:56.838Z,52.10
2022-12-29T01:00:23.764Z,52.10
2022-12-29T01:02:50.779Z,52.10
2022-12-29T01:05:17.861Z,52.10
2022-12-29T01:07:46.106Z,52.20
2022-12-29T01:10:13.072Z,52.20
2022-12-29T01:12:42.819Z,52.20
2022-12-29T01:15:12.805Z,52.30
2022-12-29T01:17:39.756Z,52.50
2022-12-29T01:20:07.570Z,52.60
2022-12-29T01:22:36.015Z,52.80
2022-12-29T01:25:03.145Z,53.10
2022-12-29T01:27:30.095Z,53.50
2022-12-29T01:29:57.006Z,53.90
2022-12-29T01:32:24.469Z,54.10
2022-12-29T01:34:51.370Z,54.40
2022-12-29T01:37:18.659Z,54.70
2022-12-29T01:39:45.592Z,54.90
2022-12-29T01:42:23.464Z,55.00
2022-12-29T01:44:50.364Z,55.10
2022-12-29T01:47:27.242Z,55.20
2022-12-29T01:49:57.609Z,55.20
2022-12-29T01:52:27.527Z,55.20
2022-12-29T01:54:57.179Z,55.20
2022-12-29T01:57:29.893Z,55.20
2022-12-29T02:00:02.984Z,55.20
2022-12-29T02:02:41.141Z,55.20
2022-12-29T02:05:29.406Z,55.10
2022-12-29T02:07:56.656Z,55.10
2022-12-29T02:10:26.844Z,55.10
2022-12-29T02:12:54.732Z,55.10
2022-12-29T02:15:34.017Z,55.10
2022-12-29T02:18:52.014Z,55.10
2022-12-29T02:21:32.480Z,55.20
2022-12-29T02:24:02.294Z,55.30
2022-12-29T02:26:37.256Z,55.30
2022-12-29T02:29:27.461Z,55.40
2022-12-29T02:32:23.916Z,55.50
2022-12-29T02:35:02.956Z,55.50
2022-12-29T02:38:01.922Z,55.60
2022-12-29T02:40:52.756Z,55.80
2022-12-29T02:43:30.479Z,55.90
2022-12-29T02:46:06.652Z,56.00
2022-12-29T02:48:41.408Z,56.10
2022-12-29T02:51:22.486Z,56.10
2022-12-29T02:54:08.171Z,56.20
2022-12-29T02:56:35.105Z,56.30
2022-12-29T02:59:03.055Z,56.30
2022-12-29T03:02:08.948Z,56.30
2022-12-29T03:04:59.854Z,56.40
2022-12-29T03:07:29.609Z,56.50
2022-12-29T03:10:26.114Z,56.50
2022-12-29T03:13:21.639Z,56.60
2022-12-29T03:16:05.580Z,56.60
2022-12-29T03:18:45.331Z,56.60
2022-12-29T03:21:58.731Z,56.60
2022-12-29T03:24:30.534Z,56.60
2022-12-29T03:27:00.538Z,56.80
2022-12-29T03:29:36.419Z,57.00
2022-12-29T03:32:05.949Z,57.20
2022-12-29T03:34:34.461Z,57.40
2022-12-29T03:37:12.550Z,57.50
2022-12-29T03:39:40.049Z,57.60
2022-12-29T03:42:13.627Z,57.70
2022-12-29T03:44:44.540Z,57.80
2022-12-29T03:47:15.531Z,57.80
2022-12-29T03:49:44.643Z,57.90
2022-12-29T03:52:12.055Z,57.90
2022-12-29T03:54:43.480Z,58.00
2022-12-29T03:57:11.808Z,58.00
2022-12-29T03:59:55.806Z,57.90
2022-12-29T04:02:23.216Z,57.90
2022-12-29T04:04:50.434Z,57.90
2022-12-29T04:07:18.054Z,57.90
2022-12-29T04:09:45.356Z,57.90
2022-12-29T04:12:18.513Z,57.90
2022-12-29T04:14:45.438Z,58.00
2022-12-29T04:17:12.760Z,58.00
2022-12-29T04:19:41.220Z,58.10
2022-12-29T04:22:08.266Z,58.20
2022-12-29T04:24:35.675Z,58.20
2022-12-29T04:27:03.864Z,58.30
2022-12-29T04:29:41.766Z,58.30
2022-12-29T04:32:26.765Z,58.40
2022-12-29T04:34:55.456Z,58.40
2022-12-29T04:37:22.885Z,58.40
2022-12-29T04:39:49.930Z,58.50
2022-12-29T04:42:17.555Z,58.60
2022-12-29T04:44:45.525Z,58.70
2022-12-29T04:47:33.909Z,58.80
2022-12-29T04:50:19.930Z,58.70
2022-12-29T04:52:54.862Z,58.50
2022-12-29T04:55:22.298Z,58.30
2022-12-29T04:57:50.592Z,58.40
2022-12-29T05:00:20.344Z,58.30
2022-12-29T05:02:48.219Z,58.20
2022-12-29T05:05:16.284Z,58.10
2022-12-29T05:07:47.604Z,57.90
2022-12-29T05:10:14.729Z,57.70
2022-12-29T05:12:41.751Z,57.50
2022-12-29T05:15:11.299Z,57.30
2022-12-29T05:17:38.884Z,57.20
2022-12-29T05:20:08.254Z,56.80
2022-12-29T05:22:36.787Z,56.70
2022-12-29T05:25:05.383Z,56.40
2022-12-29T05:27:39.035Z,56.10
2022-12-29T05:30:24.747Z,55.80
2022-12-29T05:32:51.647Z,55.80
2022-12-29T05:35:19.120Z,55.70
2022-12-29T05:37:46.061Z,55.40
2022-12-29T05:40:13.157Z,55.20
2022-12-29T05:42:40.816Z,55.20
2022-12-29T05:45:33.718Z,55.20
2022-12-29T05:48:37.675Z,55.00
2022-12-29T05:51:19.157Z,54.90
2022-12-29T05:53:48.569Z,54.80
2022-12-29T05:56:16.896Z,54.70
2022-12-29T05:58:47.104Z,54.40
2022-12-29T06:01:14.144Z,54.20
2022-12-29T06:03:47.999Z,54.00
2022-12-29T06:06:15.775Z,54.10
2022-12-29T06:08:43.462Z,54.00
2022-12-29T06:11:10.905Z,53.70
2022-12-29T06:13:39.066Z,53.60
2022-12-29T06:16:06.635Z,53.70
2022-12-29T06:18:33.886Z,53.70
2022-12-29T06:21:02.576Z,53.60
2022-12-29T06:23:29.822Z,53.50
2022-12-29T06:25:56.831Z,53.60
2022-12-29T06:28:24.004Z,53.60
2022-12-29T06:30:51.693Z,53.70
2022-12-29T06:33:19.037Z,53.70
2022-12-29T06:35:47.062Z,53.60
2022-12-29T06:38:15.252Z,53.60
2022-12-29T06:40:44.272Z,53.70
2022-12-29T06:43:16.987Z,53.80
2022-12-29T06:45:59.280Z,53.70
2022-12-29T06:48:26.230Z,53.60
2022-12-29T06:50:53.193Z,53.60
2022-12-29T06:53:20.110Z,53.70
2022-12-29T06:55:47.088Z,53.60
2022-12-29T06:58:14.144Z,53.50
2022-12-29T07:00:41.143Z,53.20
2022-12-29T07:03:08.264Z,53.10
2022-12-29T07:05:35.338Z,53.10
2022-12-29T07:08:02.428Z,52.90
2022-12-29T07:10:29.515Z,52.80
2022-12-29T07:12:56.492Z,52.80
2022-12-29T07:15:23.591Z,52.90
2022-12-29T07:17:53.266Z,52.80
2022-12-29T07:20:26.264Z,52.70
2022-12-29T07:22:53.598Z,52.70
2022-12-29T07:25:20.533Z,52.80
2022-12-29T07:27:47.565Z,52.70
2022-12-29T07:30:14.571Z,52.90
2022-12-29T07:32:41.859Z,53.00
2022-12-29T07:35:09.034Z,53.10
2022-12-29T07:37:36.049Z,53.10
2022-12-29T07:40:04.476Z,53.20
2022-12-29T07:42:32.714Z,54.00
2022-12-29T07:45:00.547Z,53.50
2022-12-29T07:48:03.605Z,53.50
2022-12-29T07:50:30.574Z,53.70
2022-12-29T07:52:57.479Z,53.80
2022-12-29T07:55:24.372Z,54.00
2022-12-29T07:57:53.807Z,54.00
2022-12-29T08:00:21.398Z,54.10
2022-12-29T08:02:48.354Z,54.10
2022-12-29T08:05:16.414Z,54.10
2022-12-29T08:07:47.675Z,54.10
2022-12-29T08:10:15.634Z,54.20
2022-12-29T08:12:43.557Z,54.20
2022-12-29T08:15:13.104Z,54.10
2022-12-29T08:17:40.202Z,54.00
2022-12-29T08:20:07.899Z,53.80
2022-12-29T08:22:34.828Z,53.90
2022-12-29T08:25:02.458Z,54.70
2022-12-29T08:27:29.410Z,54.70
2022-12-29T08:29:56.405Z,54.90
2022-12-29T08:32:23.506Z,55.00
2022-12-29T08:34:51.606Z,55.20
2022-12-29T08:37:18.603Z,55.30
2022-12-29T08:39:47.672Z,55.40
2022-12-29T08:42:15.149Z,55.60
2022-12-29T08:44:42.085Z,55.80
2022-12-29T08:47:11.519Z,56.00
2022-12-29T08:49:38.786Z,56.00
2022-12-29T08:52:05.989Z,56.00
2022-12-29T08:54:33.054Z,56.10
2022-12-29T08:57:00.347Z,56.10
2022-12-29T08:59:36.161Z,56.10
2022-12-29T09:02:03.941Z,56.10
2022-12-29T09:04:31.266Z,56.10
2022-12-29T09:06:58.354Z,56.10
2022-12-29T09:09:25.334Z,56.20
2022-12-29T09:11:52.220Z,56.30
2022-12-29T09:14:19.234Z,56.30
2022-12-29T09:17:04.552Z,56.40
2022-12-29T09:19:31.979Z,56.30
2022-12-29T09:21:58.826Z,56.40
2022-12-29T09:24:25.745Z,56.50
2022-12-29T09:26:52.654Z,56.60
2022-12-29T09:29:19.736Z,56.60
2022-12-29T09:31:46.733Z,56.80
2022-12-29T09:34:13.756Z,58.10
2022-12-29T09:36:40.767Z,58.90
2022-12-29T09:39:07.779Z,60.00
2022-12-29T09:41:48.785Z,60.80
2022-12-29T09:44:27.040Z,61.70
2022-12-29T09:46:55.717Z,62.50
2022-12-29T09:49:47.048Z,63.00
2022-12-29T09:52:21.459Z,63.10
2022-12-29T09:55:09.154Z,63.00
2022-12-29T09:57:59.470Z,63.10
2022-12-29T10:00:54.883Z,63.10
2022-12-29T10:03:25.852Z,63.10
2022-12-29T10:06:11.550Z,62.90
2022-12-29T10:09:04.371Z,62.80
2022-12-29T10:11:49.643Z,63.60
2022-12-29T10:14:35.288Z,62.80
2022-12-29T10:17:14.231Z,62.60
2022-12-29T10:20:04.979Z,62.60
2022-12-29T10:22:40.805Z,62.90
2022-12-29T10:25:21.797Z,62.90
2022-12-29T10:27:50.417Z,63.10
2022-12-29T10:30:19.267Z,63.20
2022-12-29T10:32:49.514Z,63.20
2022-12-29T10:35:25.885Z,63.40
2022-12-29T10:38:16.692Z,63.40
2022-12-29T10:40:59.758Z,63.40
2022-12-29T10:43:55.999Z,63.70
2022-12-29T10:46:34.122Z,64.00
2022-12-29T10:49:02.966Z,64.10
2022-12-29T10:51:35.034Z,64.30
2022-12-29T10:54:34.422Z,64.30
2022-12-29T10:57:06.257Z,64.20
2022-12-29T10:59:36.745Z,64.00
2022-12-29T11:02:12.743Z,63.90
2022-12-29T11:05:11.431Z,63.70
2022-12-29T11:07:38.398Z,63.60
2022-12-29T11:10:39.923Z,63.50
2022-12-29T11:13:38.362Z,63.40
2022-12-29T11:16:06.693Z,63.00
2022-12-29T11:18:41.607Z,62.90
2022-12-29T11:21:31.874Z,62.80
2022-12-29T11:24:18.845Z,62.70
2022-12-29T11:26:46.111Z,62.50
2022-12-29T11:29:22.711Z,62.30
2022-12-29T11:31:56.300Z,62.10
2022-12-29T11:34:26.553Z,61.80
2022-12-29T11:37:07.283Z,62.00
2022-12-29T11:40:00.473Z,62.20
2022-12-29T11:42:41.927Z,62.20
2022-12-29T11:45:18.973Z,61.90
2022-12-29T11:47:55.236Z,62.10
2022-12-29T11:50:35.163Z,62.00
2022-12-29T11:53:14.977Z,61.70
2022-12-29T11:55:51.548Z,61.60
2022-12-29T11:58:18.787Z,61.60
2022-12-29T12:00:48.144Z,61.20
2022-12-29T12:03:22.081Z,61.40
2022-12-29T12:06:02.639Z,61.20
2022-12-29T12:09:02.773Z,61.30
2022-12-29T12:11:37.964Z,61.40
2022-12-29T12:14:38.675Z,61.50
2022-12-29T12:17:53.330Z,62.40
2022-12-29T12:20:23.110Z,63.80
2022-12-29T12:22:59.862Z,64.20
2022-12-29T12:25:41.590Z,64.50
2022-12-29T12:28:30.512Z,64.80
2022-12-29T12:31:06.176Z,64.90
2022-12-29T12:33:42.357Z,64.80
2022-12-29T12:36:23.094Z,64.60
2022-12-29T12:39:13.109Z,64.50
2022-12-29T12:42:07.271Z,64.30
2022-12-29T12:44:37.340Z,64.20
2022-12-29T12:47:23.693Z,63.90
2022-12-29T12:50:00.366Z,63.80
2022-12-29T12:52:39.288Z,63.30
2022-12-29T12:55:39.133Z,62.90
2022-12-29T12:58:33.425Z,62.60
2022-12-29T13:01:15.510Z,61.90
2022-12-29T13:03:58.981Z,62.20
2022-12-29T13:07:07.130Z,61.70
2022-12-29T13:09:58.685Z,62.30
2022-12-29T13:12:32.373Z,61.80
2022-12-29T13:15:08.929Z,61.90
2022-12-29T13:17:41.778Z,62.00
2022-12-29T13:20:11.151Z,61.80
2022-12-29T13:23:26.721Z,61.80
2022-12-29T13:26:18.078Z,61.70
2022-12-29T13:29:14.286Z,61.50
2022-12-29T13:31:56.187Z,60.50
2022-12-29T13:34:47.329Z,61.00
2022-12-29T13:37:19.575Z,61.80
2022-12-29T13:39:57.474Z,62.30
2022-12-29T13:42:26.673Z,62.70
2022-12-29T13:45:11.250Z,62.90
2022-12-29T13:47:45.276Z,63.30
2022-12-29T13:50:19.384Z,63.60
2022-12-29T13:53:13.025Z,63.80
2022-12-29T13:55:56.373Z,64.30
2022-12-29T13:58:45.146Z,64.80
2022-12-29T14:01:23.502Z,65.20
2022-12-29T14:04:03.922Z,65.40
2022-12-29T14:06:33.018Z,65.60
2022-12-29T14:09:02.892Z,65.80
2022-12-29T14:11:37.168Z,66.00
2022-12-29T14:14:26.287Z,66.10
2022-12-29T14:16:54.084Z,66.20
2022-12-29T14:19:31.598Z,66.10
2022-12-29T14:22:03.292Z,66.10
2022-12-29T14:24:36.445Z,66.00
2022-12-29T14:27:09.558Z,65.90
2022-12-29T14:29:39.519Z,65.90
2022-12-29T14:32:27.704Z,65.80
2022-12-29T14:35:02.180Z,65.70
2022-12-29T14:37:34.656Z,65.50
2022-12-29T14:40:24.003Z,65.50
2022-12-29T14:42:53.083Z,65.40
2022-12-29T14:45:20.073Z,65.30
2022-12-29T14:47:52.070Z,65.20
2022-12-29T14:50:22.063Z,65.30
2022-12-29T14:52:50.502Z,65.40
2022-12-29T14:55:18.518Z,65.20
2022-12-29T14:57:50.672Z,65.20
2022-12-29T15:00:25.526Z,65.40
2022-12-29T15:03:20.779Z,65.50
2022-12-29T15:06:12.203Z,65.70
2022-12-29T15:09:05.385Z,66.00
2022-12-29T15:11:41.512Z,66.20
2022-12-29T15:14:30.240Z,66.50
2022-12-29T15:16:57.658Z,66.80
2022-12-29T15:19:26.450Z,67.20
2022-12-29T15:21:55.564Z,67.50
2022-12-29T15:24:22.897Z,68.20
2022-12-29T15:26:55.785Z,68.50
2022-12-29T15:29:31.987Z,68.70
2022-12-29T15:32:02.896Z,68.90
2022-12-29T15:34:32.982Z,68.80
2022-12-29T15:37:00.608Z,68.80
2022-12-29T15:39:32.266Z,69.00
2022-12-29T15:42:34.268Z,69.10
2022-12-29T15:45:11.842Z,69.70
2022-12-29T15:47:40.829Z,70.00
2022-12-29T15:50:22.465Z,70.40
2022-12-29T15:52:49.850Z,70.50
2022-12-29T15:55:39.284Z,70.60
2022-12-29T15:58:25.139Z,70.90
2022-12-29T16:00:54.724Z,71.10
2022-12-29T16:03:22.497Z,71.30
2022-12-29T16:06:07.881Z,71.40
2022-12-29T16:08:40.866Z,71.50
2022-12-29T16:11:28.051Z,71.60
2022-12-29T16:13:56.369Z,71.70
2022-12-29T16:16:32.702Z,71.70
2022-12-29T16:19:00.208Z,71.70
2022-12-29T16:21:35.320Z,71.60
2022-12-29T16:24:09.229Z,71.80
2022-12-29T16:26:36.773Z,71.70
2022-12-29T16:29:08.164Z,71.60
2022-12-29T16:31:36.884Z,71.40
2022-12-29T16:34:34.653Z,71.20
2022-12-29T16:37:22.815Z,70.80
2022-12-29T16:39:49.745Z,70.50
2022-12-29T16:42:55.963Z,70.30
2022-12-29T16:45:23.411Z,70.40
2022-12-29T16:48:26.055Z,70.70
2022-12-29T16:51:01.660Z,71.00
2022-12-29T16:53:33.187Z,71.50
2022-12-29T16:56:10.335Z,72.10
2022-12-29T16:58:38.015Z,73.00
2022-12-29T17:01:07.465Z,73.60
2022-12-29T17:03:40.832Z,74.10
2022-12-29T17:06:21.951Z,75.30
2022-12-29T17:08:50.127Z,76.90
2022-12-29T17:11:58.441Z,77.80
2022-12-29T17:14:48.594Z,78.50
2022-12-29T17:17:21.872Z,79.40
2022-12-29T17:19:54.078Z,79.80
2022-12-29T17:22:25.682Z,80.20
2022-12-29T17:24:54.544Z,80.80
2022-12-29T17:27:43.725Z,81.30
2022-12-29T17:30:12.553Z,82.40
2022-12-29T17:32:40.858Z,83.10
2022-12-29T17:35:15.753Z,84.80
2022-12-29T17:37:42.744Z,84.60
2022-12-29T17:40:18.258Z,84.90
2022-12-29T17:42:50.313Z,84.90
2022-12-29T17:45:20.996Z,84.80
2022-12-29T17:47:48.390Z,84.70
2022-12-29T17:50:18.906Z,84.50
2022-12-29T17:52:51.742Z,84.20
2022-12-29T17:55:20.779Z,83.90
2022-12-29T17:57:48.015Z,83.50
2022-12-29T18:00:16.604Z,83.00
2022-12-29T18:02:43.846Z,82.50
2022-12-29T18:05:37.333Z,82.00
2022-12-29T18:08:04.241Z,81.00
2022-12-29T18:10:31.908Z,80.30
2022-12-29T18:13:03.002Z,79.90
2022-12-29T18:15:35.761Z,79.20
2022-12-29T18:18:11.826Z,78.70
2022-12-29T18:20:39.260Z,78.20
2022-12-29T18:23:07.084Z,77.70
2022-12-29T18:25:46.578Z,77.00
2022-12-29T18:28:13.509Z,76.80
2022-12-29T18:30:40.577Z,76.30
2022-12-29T18:33:21.914Z,76.00
2022-12-29T18:35:57.922Z,75.50
2022-12-29T18:38:25.071Z,75.20
2022-12-29T18:40:52.546Z,75.10
2022-12-29T18:43:20.306Z,74.70
2022-12-29T18:45:47.581Z,74.40
2022-12-29T18:48:15.465Z,74.20
2022-12-29T18:50:43.198Z,73.80
2022-12-29T18:53:20.171Z,73.70
2022-12-29T18:55:47.239Z,73.20
2022-12-29T18:58:14.233Z,73.00
2022-12-29T19:00:41.683Z,72.80
2022-12-29T19:03:16.823Z,72.60
2022-12-29T19:05:45.398Z,72.40
2022-12-29T19:08:13.305Z,72.20
2022-12-29T19:10:41.925Z,71.90
2022-12-29T19:13:19.474Z,71.60
2022-12-29T19:15:47.454Z,71.60
2022-12-29T19:21:07.084Z,71.80
2022-12-29T19:23:33.991Z,72.10
2022-12-29T19:26:00.929Z,72.20
2022-12-29T19:28:29.111Z,72.40
2022-12-29T19:30:59.998Z,72.70
2022-12-29T19:33:28.122Z,73.40
2022-12-29T19:36:00.708Z,74.00
2022-12-29T19:38:27.740Z,74.70
2022-12-29T19:40:54.643Z,75.60
2022-12-29T19:43:21.574Z,76.50
2022-12-29T19:45:48.473Z,77.60
2022-12-29T19:48:18.703Z,78.50
2022-12-29T19:50:45.975Z,79.40
2022-12-29T19:53:14.435Z,80.50
2022-12-29T19:55:47.341Z,81.30
2022-12-29T19:58:14.810Z,81.90
2022-12-29T20:00:43.016Z,82.90
2022-12-29T20:03:10.299Z,83.70
2022-12-29T20:05:38.468Z,84.40
2022-12-29T20:08:05.591Z,85.10
2022-12-29T20:10:32.550Z,85.30
2022-12-29T20:12:59.518Z,85.60
2022-12-29T20:15:26.428Z,85.90
2022-12-29T20:20:40.312Z,86.30
2022-12-29T20:23:07.384Z,86.30
2022-12-29T20:25:49.650Z,86.40
2022-12-29T20:28:17.078Z,86.60
2022-12-29T20:30:44.308Z,86.80
2022-12-29T20:33:11.471Z,87.00
2022-12-29T20:35:38.406Z,86.80
2022-12-29T20:38:05.797Z,86.70
2022-12-29T20:40:32.806Z,86.20
2022-12-29T20:42:59.754Z,86.00
2022-12-29T20:45:26.804Z,85.60
2022-12-29T20:47:54.747Z,85.50
2022-12-29T20:50:21.721Z,85.50
2022-12-29T20:52:48.841Z,85.50
2022-12-29T20:55:15.776Z,85.60
2022-12-29T20:58:23.245Z,85.90
2022-12-29T21:00:30.750Z,86.20
2022-12-29T21:02:59.557Z,86.50
2022-12-29T21:05:28.006Z,86.60
2022-12-29T21:07:55.610Z,87.00
2022-12-29T21:10:22.840Z,87.80
2022-12-29T21:12:50.164Z,88.10
2022-12-29T21:15:17.456Z,88.00
2022-12-29T21:17:44.899Z,88.60
2022-12-29T21:20:20.068Z,89.20
2022-12-29T21:22:48.407Z,89.60
2022-12-29T21:25:15.472Z,90.10
2022-12-29T21:27:45.279Z,90.20
2022-12-29T21:30:12.999Z,90.70
2022-12-29T21:32:41.431Z,90.50
2022-12-29T21:35:09.816Z,90.70
2022-12-29T21:37:37.319Z,90.70
2022-12-29T21:40:05.734Z,90.70
2022-12-29T21:42:32.758Z,90.80
2022-12-29T21:45:20.680Z,90.80
2022-12-29T21:48:07.200Z,90.90
2022-12-29T21:50:57.185Z,91.20
2022-12-29T21:53:37.574Z,91.40
2022-12-29T21:56:10.629Z,91.70
2022-12-29T21:58:57.562Z,91.70
2022-12-29T22:01:44.548Z,91.60
2022-12-29T22:04:32.476Z,91.70
2022-12-29T22:07:18.231Z,91.80
2022-12-29T22:10:03.694Z,91.90
2022-12-29T22:12:50.604Z,91.90
2022-12-29T22:15:17.908Z,91.90
2022-12-29T22:17:50.288Z,91.80
2022-12-29T22:20:23.000Z,91.70
2022-12-29T22:22:49.965Z,91.50
2022-12-29T22:25:17.004Z,91.40
2022-12-29T22:27:44.383Z,91.40
2022-12-29T22:30:12.088Z,91.20
2022-12-29T22:32:39.329Z,91.10
2022-12-29T22:35:08.305Z,91.00
2022-12-29T22:37:37.760Z,90.80
2022-12-29T22:40:06.089Z,90.50
2022-12-29T22:42:33.374Z,90.40
2022-12-29T22:45:00.301Z,90.30
2022-12-29T22:47:27.455Z,90.30
2022-12-29T22:49:54.416Z,90.20
2022-12-29T22:52:21.380Z,90.20
2022-12-29T22:54:48.293Z,90.30
2022-12-29T22:57:15.167Z,90.40
2022-12-29T22:59:42.160Z,90.50
2022-12-29T23:02:09.196Z,90.50
2022-12-29T23:07:24.238Z,90.60
2022-12-29T23:09:51.823Z,90.60
2022-12-29T23:12:18.788Z,90.70
2022-12-29T23:14:45.690Z,90.80
2022-12-29T23:17:12.636Z,90.80
2022-12-29T23:19:39.585Z,90.90
2022-12-29T23:22:06.493Z,91.20
2022-12-29T23:24:33.425Z,90.80
2022-12-29T23:27:00.392Z,90.80
2022-12-29T23:29:27.305Z,90.80
2022-12-29T23:31:54.316Z,90.80
2022-12-29T23:34:21.266Z,91.00
2022-12-29T23:36:48.229Z,91.40
2022-12-29T23:39:25.968Z,91.10
2022-12-29T23:41:52.983Z,91.10
2022-12-29T23:44:19.995Z,91.20
2022-12-29T23:46:47.100Z,91.30
2022-12-29T23:49:14.047Z,91.40
2022-12-29T23:51:41.138Z,91.40
2022-12-29T23:54:08.102Z,91.50
2022-12-29T23:56:35.083Z,91.50
2022-12-29T23:59:06.117Z,91.50
